createdAt,value
2022-07-29T00:01:19.939Z,99444.84
2022-07-29T00:04:07.867Z,99448.12
2022-07-29T00:06:55.475Z,99448.44
2022-07-29T00:09:51.874Z,99453.13
2022-07-29T00:12:39.962Z,99439.75
2022-07-29T00:15:28.898Z,99441.25
2022-07-29T00:18:16.446Z,99438.56
2022-07-29T00:21:04.385Z,99439.47
2022-07-29T00:23:51.922Z,99437.31
2022-07-29T00:26:39.769Z,99440.47
2022-07-29T00:29:35.050Z,99436.91
2022-07-29T00:32:23.203Z,99438.16
2022-07-29T00:35:10.791Z,99443.97
2022-07-29T00:37:58.650Z,99444.03
2022-07-29T00:40:46.306Z,99439.63
2022-07-29T00:43:34.149Z,99433.38
2022-07-29T00:46:21.713Z,99440.34
2022-07-29T00:49:09.603Z,99436.41
2022-07-29T00:51:57.831Z,99446.19
2022-07-29T00:54:45.761Z,99436.06
2022-07-29T00:57:33.954Z,99436.03
2022-07-29T01:00:26.447Z,99434.41
2022-07-29T01:03:14.116Z,99439.84
2022-07-29T01:06:01.999Z,99430.13
2022-07-29T01:08:49.792Z,99433.84
2022-07-29T01:11:38.149Z,99431.63
2022-07-29T01:14:26.360Z,99432.66
2022-07-29T01:17:26.243Z,99425.66
2022-07-29T01:20:16.429Z,99429.69
2022-07-29T01:23:25.964Z,99423.22
2022-07-29T01:26:35.142Z,99422.84
2022-07-29T01:29:56.512Z,99420.50
2022-07-29T01:32:48.832Z,99420.41
2022-07-29T01:35:42.983Z,99415.34
2022-07-29T01:38:30.980Z,99420.03
2022-07-29T01:41:20.031Z,99415.19
2022-07-29T01:44:18.225Z,99416.09
2022-07-29T01:47:12.263Z,99417.13
2022-07-29T01:50:01.273Z,99414.97
2022-07-29T01:53:00.295Z,99417.81
2022-07-29T01:55:49.717Z,99419.13
2022-07-29T01:58:40.247Z,99423.00
2022-07-29T02:01:28.492Z,99420.69
2022-07-29T02:04:28.939Z,99415.16
2022-07-29T02:07:21.150Z,99414.78
2022-07-29T02:10:10.490Z,99414.56
2022-07-29T02:12:58.461Z,99415.19
2022-07-29T02:15:46.960Z,99418.12
2022-07-29T02:18:35.146Z,99404.41
2022-07-29T02:21:26.291Z,99415.25
2022-07-29T02:24:15.158Z,99411.31
2022-07-29T02:27:03.637Z,99408.28
2022-07-29T02:29:52.393Z,99410.31
2022-07-29T02:32:41.318Z,99401.97
2022-07-29T02:35:29.256Z,99412.28
2022-07-29T02:38:23.349Z,99413.28
2022-07-29T02:41:17.854Z,99413.72
2022-07-29T02:44:28.111Z,99416.06
2022-07-29T02:47:48.942Z,99416.06
2022-07-29T02:50:40.086Z,99414.44
2022-07-29T02:53:27.997Z,99410.31
2022-07-29T02:56:17.835Z,99411.84
2022-07-29T02:59:11.066Z,99419.75
2022-07-29T03:02:00.106Z,99410.00
2022-07-29T03:04:48.976Z,99411.56
2022-07-29T03:07:37.920Z,99411.94
2022-07-29T03:10:28.704Z,99404.81
2022-07-29T03:13:17.221Z,99408.00
2022-07-29T03:16:05.548Z,99414.41
2022-07-29T03:18:53.687Z,99406.81
2022-07-29T03:21:41.273Z,99401.03
2022-07-29T03:24:31.675Z,99401.19
2022-07-29T03:27:19.269Z,99411.22
2022-07-29T03:30:09.003Z,99417.09
2022-07-29T03:32:56.708Z,99409.84
2022-07-29T03:35:46.711Z,99403.50
2022-07-29T03:38:36.047Z,99406.44
2022-07-29T03:41:24.769Z,99415.78
2022-07-29T03:44:13.739Z,99418.56
2022-07-29T03:47:02.498Z,99423.19
2022-07-29T03:49:51.633Z,99418.25
2022-07-29T03:52:39.775Z,99417.00
2022-07-29T03:55:29.630Z,99416.94
2022-07-29T03:58:18.196Z,99414.41
2022-07-29T04:01:05.911Z,99416.78
2022-07-29T04:03:53.816Z,99421.81
2022-07-29T04:06:43.030Z,99425.38
2022-07-29T04:09:31.101Z,99424.22
2022-07-29T04:12:18.635Z,99419.06
2022-07-29T04:15:06.971Z,99420.06
2022-07-29T04:17:54.521Z,99415.50
2022-07-29T04:20:42.370Z,99422.91
2022-07-29T04:23:31.446Z,99422.91
2022-07-29T04:26:20.327Z,99427.63
2022-07-29T04:29:07.905Z,99426.09
2022-07-29T04:31:55.765Z,99427.31
2022-07-29T04:34:43.305Z,99426.16
2022-07-29T04:37:31.169Z,99428.16
2022-07-29T04:40:18.763Z,99428.19
2022-07-29T04:43:06.573Z,99425.97
2022-07-29T04:45:54.912Z,99420.06
2022-07-29T04:48:43.064Z,99426.97
2022-07-29T04:51:30.665Z,99423.53
2022-07-29T04:54:18.844Z,99428.13
2022-07-29T04:57:07.084Z,99428.56
2022-07-29T04:59:54.969Z,99421.53
2022-07-29T05:02:42.640Z,99432.56
2022-07-29T05:05:30.590Z,99430.34
2022-07-29T05:08:18.113Z,99435.59
2022-07-29T05:11:11.334Z,99436.09
2022-07-29T05:14:00.158Z,99436.94
2022-07-29T05:16:47.980Z,99436.34
2022-07-29T05:19:39.452Z,99435.19
2022-07-29T05:22:27.740Z,99439.59
2022-07-29T05:25:15.309Z,99441.25
2022-07-29T05:28:03.265Z,99440.16
2022-07-29T05:30:50.877Z,99444.91
2022-07-29T05:33:38.810Z,99441.44
2022-07-29T05:36:26.484Z,99452.03
2022-07-29T05:39:14.386Z,99451.41
2022-07-29T05:42:02.194Z,99445.56
2022-07-29T05:44:50.030Z,99452.72
2022-07-29T05:47:37.605Z,99449.63
2022-07-29T05:50:25.491Z,99448.53
2022-07-29T05:53:18.981Z,99444.63
2022-07-29T05:56:08.389Z,99447.38
2022-07-29T05:58:56.045Z,99437.22
2022-07-29T06:01:43.968Z,99448.62
2022-07-29T06:04:32.963Z,99437.69
2022-07-29T06:07:20.666Z,99445.94
2022-07-29T06:10:08.939Z,99448.75
2022-07-29T06:12:56.560Z,99455.41
2022-07-29T06:15:44.935Z,99450.72
2022-07-29T06:18:32.562Z,99455.41
2022-07-29T06:21:20.410Z,99461.69
2022-07-29T06:24:08.015Z,99460.91
2022-07-29T06:26:56.091Z,99466.38
2022-07-29T06:29:43.660Z,99468.34
2022-07-29T06:32:31.517Z,99464.06
2022-07-29T06:35:41.162Z,99469.19
2022-07-29T06:38:30.732Z,99464.91
2022-07-29T06:41:20.110Z,99469.63
2022-07-29T06:44:08.678Z,99470.03
2022-07-29T06:46:56.911Z,99475.94
2022-07-29T06:49:44.757Z,99481.03
2022-07-29T06:52:32.399Z,99482.97
2022-07-29T06:55:25.269Z,99478.28
2022-07-29T06:58:13.012Z,99487.66
2022-07-29T07:01:03.686Z,99490.78
2022-07-29T07:03:51.358Z,99486.09
2022-07-29T07:06:39.321Z,99485.66
2022-07-29T07:09:26.976Z,99480.16
2022-07-29T07:12:28.082Z,99484.44
2022-07-29T07:15:15.636Z,99482.06
2022-07-29T07:18:04.532Z,99485.50
2022-07-29T07:20:52.060Z,99490.19
2022-07-29T07:23:40.030Z,99492.13
2022-07-29T07:26:28.273Z,99483.03
2022-07-29T07:29:16.169Z,99492.78
2022-07-29T07:32:03.942Z,99482.09
2022-07-29T07:34:52.319Z,99480.03
2022-07-29T07:37:40.129Z,99474.06
2022-07-29T07:40:28.132Z,99473.50
2022-07-29T07:43:15.701Z,99476.56
2022-07-29T07:46:03.599Z,99483.09
2022-07-29T07:48:51.467Z,99483.84
2022-07-29T07:51:39.461Z,99481.44
2022-07-29T07:54:27.087Z,99472.12
2022-07-29T07:57:15.969Z,99474.72
2022-07-29T08:00:02.447Z,99477.31
2022-07-29T08:03:03.181Z,99472.84
2022-07-29T08:06:04.087Z,99475.41
2022-07-29T08:08:49.762Z,99478.78
2022-07-29T08:11:37.754Z,99472.44
2022-07-29T08:14:26.393Z,99472.56
